createdAt,value
2023-04-21T00:04:07.630Z,101202.09
2023-04-21T00:09:11.473Z,101206.03
2023-04-21T00:14:14.551Z,101194.41
2023-04-21T00:19:18.247Z,101200.34
2023-04-21T00:24:21.179Z,101198.44
2023-04-21T00:29:23.961Z,101199.00
2023-04-21T00:34:26.834Z,101200.06
2023-04-21T00:39:29.497Z,101207.31
2023-04-21T00:44:32.339Z,101215.88
2023-04-21T00:49:35.319Z,101210.47
2023-04-21T00:54:38.364Z,101204.69
2023-04-21T00:59:41.315Z,101201.88
2023-04-21T01:04:46.270Z,101210.78
2023-04-21T01:09:48.916Z,101205.91
2023-04-21T01:14:51.687Z,101204.59
2023-04-21T01:19:57.912Z,101198.59
2023-04-21T01:25:01.795Z,101195.28
2023-04-21T01:30:07.856Z,101201.38
2023-04-21T01:35:11.373Z,101206.25
2023-04-21T01:40:15.124Z,101198.06
2023-04-21T01:45:18.066Z,101207.94
2023-04-21T01:50:20.897Z,101202.19
2023-04-21T01:55:23.746Z,101210.34
2023-04-21T02:00:27.102Z,101202.47
2023-04-21T02:05:29.845Z,101207.97
2023-04-21T02:10:32.646Z,101206.31
2023-04-21T02:15:35.423Z,101202.41
2023-04-21T02:20:38.292Z,101208.25
2023-04-21T02:25:42.632Z,101209.59
2023-04-21T02:30:45.591Z,101209.75
2023-04-21T02:35:48.432Z,101212.03
2023-04-21T02:40:51.430Z,101196.78
2023-04-21T02:45:55.301Z,101193.78
2023-04-21T02:50:58.213Z,101196.78
2023-04-21T02:56:02.917Z,101185.91
2023-04-21T03:01:06.857Z,101191.94
2023-04-21T03:06:10.794Z,101184.19
2023-04-21T03:11:15.190Z,101192.75
2023-04-21T03:16:18.389Z,101201.38
2023-04-21T03:21:21.155Z,101207.59
2023-04-21T03:26:24.458Z,101207.25
2023-04-21T03:31:27.379Z,101203.41
2023-04-21T03:36:30.258Z,101193.97
2023-04-21T03:41:34.319Z,101200.88
2023-04-21T03:46:37.232Z,101210.06
2023-04-21T03:51:40.012Z,101213.38
2023-04-21T03:56:42.829Z,101204.91
2023-04-21T04:01:45.896Z,101207.22
2023-04-21T04:06:48.785Z,101204.34
2023-04-21T04:11:51.541Z,101202.41
2023-04-21T04:16:54.322Z,101202.16
2023-04-21T04:21:59.256Z,101197.84
2023-04-21T04:27:03.746Z,101196.63
2023-04-21T04:32:07.076Z,101200.00
2023-04-21T04:37:11.489Z,101201.66
2023-04-21T04:42:14.797Z,101194.19
2023-04-21T04:47:17.819Z,101186.06
2023-04-21T04:52:20.607Z,101181.38
2023-04-21T04:57:23.397Z,101175.13
2023-04-21T05:02:26.337Z,101176.19
2023-04-21T05:07:29.297Z,101170.88
2023-04-21T05:12:34.916Z,101164.13
2023-04-21T05:17:37.486Z,101156.56
2023-04-21T05:22:41.103Z,101150.03
2023-04-21T05:27:44.083Z,101142.91
2023-04-21T05:32:46.807Z,101146.88
2023-04-21T05:37:49.695Z,101143.81
2023-04-21T05:42:52.496Z,101140.13
2023-04-21T05:47:55.592Z,101142.78
2023-04-21T05:52:58.527Z,101159.50
2023-04-21T05:58:01.257Z,101158.66
2023-04-21T06:03:04.441Z,101147.03
2023-04-21T06:08:07.528Z,101143.13
2023-04-21T06:13:10.202Z,101158.50
2023-04-21T06:18:12.938Z,101151.41
2023-04-21T06:23:15.773Z,101160.78
2023-04-21T06:28:18.659Z,101143.19
2023-04-21T06:33:21.431Z,101147.97
2023-04-21T06:38:24.490Z,101142.13
2023-04-21T06:43:27.282Z,101135.00
2023-04-21T06:48:30.649Z,101141.34
2023-04-21T06:53:33.443Z,101134.03
2023-04-21T06:58:36.268Z,101119.25
2023-04-21T07:03:39.087Z,101129.13
2023-04-21T07:08:42.155Z,101132.28
2023-04-21T07:13:44.830Z,101136.72
2023-04-21T07:18:47.686Z,101134.53
2023-04-21T07:23:50.687Z,101139.28
2023-04-21T07:28:53.789Z,101131.41
2023-04-21T07:33:56.682Z,101129.06
2023-04-21T07:38:59.413Z,101135.91
2023-04-21T07:44:02.094Z,101129.88
2023-04-21T07:49:04.878Z,101133.34
2023-04-21T07:54:07.647Z,101137.50
2023-04-21T07:59:10.644Z,101145.03
2023-04-21T08:04:13.580Z,101145.44
2023-04-21T08:09:16.472Z,101148.19
2023-04-21T08:14:19.453Z,101145.75
2023-04-21T08:19:22.731Z,101139.88
2023-04-21T08:24:25.863Z,101135.38
2023-04-21T08:29:29.150Z,101092.88
2023-04-21T08:34:31.921Z,101138.66
2023-04-21T08:39:34.683Z,101132.28
2023-04-21T08:44:37.958Z,101130.19
2023-04-21T08:49:43.005Z,101128.41
2023-04-21T08:54:47.832Z,101132.53
2023-04-21T08:59:50.712Z,101134.53
2023-04-21T09:04:56.056Z,101113.00
2023-04-21T09:10:01.573Z,101128.91
2023-04-21T09:15:07.611Z,101114.56
2023-04-21T09:20:16.205Z,101129.56
2023-04-21T09:25:22.767Z,101131.69
2023-04-21T09:30:26.033Z,101126.06
2023-04-21T09:35:30.433Z,101133.25
2023-04-21T09:40:35.040Z,101129.31
2023-04-21T09:45:40.490Z,101131.88
2023-04-21T09:51:11.428Z,101137.56
2023-04-21T09:56:10.568Z,101132.66
2023-04-21T10:01:14.792Z,101129.13
2023-04-21T10:06:17.712Z,101127.69
2023-04-21T10:11:20.687Z,101127.44
2023-04-21T10:16:23.682Z,101134.44
2023-04-21T10:21:27.264Z,101128.13
2023-04-21T10:26:35.941Z,101131.47
2023-04-21T10:31:54.783Z,101118.56
2023-04-21T10:37:00.237Z,101124.22
2023-04-21T10:42:21.214Z,101121.84
2023-04-21T10:47:41.752Z,101124.47
2023-04-21T10:52:46.604Z,101122.38
2023-04-21T10:57:49.743Z,101135.09
2023-04-21T11:03:01.504Z,101133.91
2023-04-21T11:08:06.115Z,101134.97
2023-04-21T11:13:09.050Z,101142.16
2023-04-21T11:18:11.898Z,101126.59
2023-04-21T11:23:19.235Z,101137.88
2023-04-21T11:28:23.253Z,101142.56
2023-04-21T11:33:29.715Z,101146.38
2023-04-21T11:38:42.202Z,101143.63
2023-04-21T11:43:46.611Z,101162.72
2023-04-21T11:49:02.395Z,101159.06
2023-04-21T11:54:07.145Z,101160.22
2023-04-21T11:59:14.750Z,101162.13
2023-04-21T12:04:24.183Z,101165.47
2023-04-21T12:09:27.789Z,101169.34
2023-04-21T12:14:33.874Z,101163.59
2023-04-21T12:19:42.624Z,101170.53
2023-04-21T12:24:46.336Z,101173.69
2023-04-21T12:29:49.225Z,101174.75
2023-04-21T12:34:51.980Z,101173.13
2023-04-21T12:39:54.779Z,101153.00
2023-04-21T12:44:57.498Z,101180.13
2023-04-21T12:50:00.336Z,101175.78
2023-04-21T12:55:03.161Z,101179.63
2023-04-21T13:00:09.289Z,101160.44
2023-04-21T13:05:13.869Z,101179.75
2023-04-21T13:10:16.668Z,101183.50
2023-04-21T13:15:19.456Z,101185.44
2023-04-21T13:20:22.745Z,101178.13
2023-04-21T13:25:31.417Z,101189.78
2023-04-21T13:30:35.473Z,101181.22
2023-04-21T13:35:38.873Z,101199.09
2023-04-21T13:40:41.686Z,101213.31
2023-04-21T13:45:44.505Z,101200.38
2023-04-21T13:50:47.688Z,101210.78
2023-04-21T13:55:50.582Z,101215.53
2023-04-21T14:00:53.314Z,101224.81
2023-04-21T14:05:56.925Z,101228.56
2023-04-21T14:11:01.324Z,101223.81
2023-04-21T14:16:04.420Z,101234.00
2023-04-21T14:21:07.273Z,101235.50
2023-04-21T14:26:10.180Z,101232.72
2023-04-21T14:31:13.067Z,101246.13
2023-04-21T14:36:15.983Z,101240.72
2023-04-21T14:41:19.178Z,101250.50
2023-04-21T14:46:22.342Z,101234.38
2023-04-21T14:51:25.150Z,101261.81
2023-04-21T14:56:28.146Z,101256.56
2023-04-21T15:01:31.178Z,101256.22
2023-04-21T15:06:34.082Z,101274.97
2023-04-21T15:11:36.835Z,101257.75
2023-04-21T15:16:39.815Z,101265.25
2023-04-21T15:21:42.746Z,101255.56
2023-04-21T15:26:46.813Z,101266.25
2023-04-21T15:31:49.604Z,101272.88
2023-04-21T15:36:52.560Z,101275.44
2023-04-21T15:41:55.542Z,101276.94
2023-04-21T15:46:58.475Z,101286.19
2023-04-21T15:52:03.113Z,101278.97
2023-04-21T15:57:06.380Z,101279.41
2023-04-21T16:02:09.826Z,101279.84
2023-04-21T16:07:14.441Z,101282.22
2023-04-21T16:12:18.193Z,101290.88
2023-04-21T16:17:21.698Z,101289.88
2023-04-21T16:22:26.150Z,101291.88
2023-04-21T16:27:29.014Z,101286.81
2023-04-21T16:32:31.883Z,101289.03
2023-04-21T16:37:37.471Z,101280.56
2023-04-21T16:42:40.175Z,101285.34
2023-04-21T16:47:43.375Z,101291.28
2023-04-21T16:52:46.568Z,101300.06
2023-04-21T16:57:49.479Z,101306.84
2023-04-21T17:02:52.490Z,101296.53
2023-04-21T17:07:55.449Z,101317.44
2023-04-21T17:12:58.209Z,101314.38
2023-04-21T17:18:01.597Z,101313.81
2023-04-21T17:23:04.600Z,101321.41
2023-04-21T17:28:07.490Z,101319.75
2023-04-21T17:33:33.036Z,101325.22
2023-04-21T17:38:36.001Z,101322.78
2023-04-21T17:43:38.904Z,101326.22
2023-04-21T17:48:41.744Z,101322.88
2023-04-21T17:53:44.681Z,101322.81
2023-04-21T17:58:47.444Z,101319.59
2023-04-21T18:03:50.484Z,101330.16
2023-04-21T18:08:53.387Z,101327.16
2023-04-21T18:13:56.590Z,101327.31
2023-04-21T18:18:59.450Z,101331.31
2023-04-21T18:24:02.317Z,101329.09
2023-04-21T18:29:05.214Z,101330.47
2023-04-21T18:34:09.101Z,101329.13
2023-04-21T18:39:11.935Z,101333.34
2023-04-21T18:44:16.500Z,101335.50
2023-04-21T18:49:19.390Z,101338.03
2023-04-21T18:54:22.202Z,101346.88
2023-04-21T18:59:25.819Z,101351.47
2023-04-21T19:04:28.715Z,101356.66
2023-04-21T19:09:31.751Z,101352.94
2023-04-21T19:14:45.468Z,101355.47
2023-04-21T19:19:49.934Z,101352.34
2023-04-21T19:24:56.259Z,101346.25
2023-04-21T19:29:59.307Z,101349.69
2023-04-21T19:35:02.120Z,101357.38
2023-04-21T19:40:08.366Z,101352.72
2023-04-21T19:45:11.436Z,101347.94
2023-04-21T19:50:14.179Z,101355.00
2023-04-21T19:55:17.443Z,101346.31
2023-04-21T20:00:20.351Z,101360.63
2023-04-21T20:05:23.125Z,101353.72
2023-04-21T20:10:26.524Z,101348.72
2023-04-21T20:15:29.264Z,101361.03
2023-04-21T20:20:32.088Z,101360.91
2023-04-21T20:25:34.913Z,101366.28
2023-04-21T20:30:37.736Z,101359.13
2023-04-21T20:35:44.254Z,101363.50
2023-04-21T20:40:50.448Z,101357.50
2023-04-21T20:45:53.870Z,101366.75
2023-04-21T20:50:56.834Z,101368.88
2023-04-21T20:56:00.151Z,101364.59
2023-04-21T21:01:03.195Z,101368.56
2023-04-21T21:06:06.209Z,101367.69
2023-04-21T21:11:08.900Z,101372.31
2023-04-21T21:16:11.687Z,101376.56
2023-04-21T21:21:14.387Z,101370.38
2023-04-21T21:26:17.985Z,101373.84
2023-04-21T21:31:20.969Z,101371.91
2023-04-21T21:36:23.673Z,101381.09
2023-04-21T21:41:26.528Z,101382.88
2023-04-21T21:46:29.350Z,101390.25
2023-04-21T21:51:32.818Z,101384.28
2023-04-21T21:56:36.839Z,101386.88
2023-04-21T22:01:39.915Z,101385.00
2023-04-21T22:06:42.786Z,101385.69
2023-04-21T22:11:46.498Z,101394.09
2023-04-21T22:16:50.914Z,101397.53
2023-04-21T22:21:53.694Z,101395.25
2023-04-21T22:26:57.462Z,101395.03
2023-04-21T22:32:00.877Z,101388.75
2023-04-21T22:37:05.938Z,101399.38
2023-04-21T22:42:08.751Z,101397.91
2023-04-21T22:47:12.470Z,101399.47
2023-04-21T22:52:15.463Z,101412.59
2023-04-21T22:57:18.419Z,101415.94
2023-04-21T23:02:21.959Z,101400.44
2023-04-21T23:07:24.913Z,101400.72
2023-04-21T23:12:27.814Z,101386.41
2023-04-21T23:17:31.007Z,101408.69
2023-04-21T23:22:33.744Z,101414.63
2023-04-21T23:27:36.573Z,101399.06
2023-04-21T23:32:39.581Z,101422.66
2023-04-21T23:37:42.468Z,101435.75
2023-04-21T23:42:47.505Z,101430.19
2023-04-21T23:47:50.784Z,101436.69
2023-04-21T23:52:53.681Z,101440.50
2023-04-21T23:57:56.443Z,101444.03
